createdAt,value
2022-08-05T00:00:17.768Z,98098.28
2022-08-05T00:02:50.582Z,98058.59
2022-08-05T00:06:02.817Z,98029.63
2022-08-05T00:08:32.978Z,98026.03
2022-08-05T00:10:57.358Z,98036.72
2022-08-05T00:13:38.742Z,98027.31
2022-08-05T00:16:08.713Z,98023.03
2022-08-05T00:18:36.592Z,98019.03
2022-08-05T00:21:06.792Z,98017.34
2022-08-05T00:23:46.493Z,98022.03
2022-08-05T00:26:20.501Z,98016.75
2022-08-05T00:28:47.068Z,98031.16
2022-08-05T00:31:16.240Z,98043.28
2022-08-05T00:34:55.795Z,98055.44
2022-08-05T00:37:11.568Z,98068.56
2022-08-05T00:39:15.970Z,98116.06
2022-08-05T00:41:46.823Z,98136.16
2022-08-05T00:44:23.231Z,98150.06
2022-08-05T00:47:01.513Z,98160.75
2022-08-05T00:49:32.671Z,98157.59
2022-08-05T00:52:00.147Z,98149.38
2022-08-05T00:54:28.183Z,98144.78
2022-08-05T00:56:57.015Z,98142.66
2022-08-05T00:59:23.702Z,98146.41
2022-08-05T01:01:51.071Z,98161.78
2022-08-05T01:04:20.302Z,98209.03
2022-08-05T01:06:53.447Z,98229.66
2022-08-05T01:09:21.952Z,98221.16
2022-08-05T01:11:52.143Z,98225.28
2022-08-05T01:14:28.055Z,98228.53
2022-08-05T01:17:07.390Z,98224.63
2022-08-05T01:20:01.204Z,98195.06
2022-08-05T01:22:46.836Z,98147.56
2022-08-05T01:25:40.467Z,98135.19
2022-08-05T01:28:22.980Z,98113.81
2022-08-05T01:31:08.245Z,98111.69
2022-08-05T01:33:49.353Z,98127.38
2022-08-05T01:36:28.112Z,98119.59
2022-08-05T01:38:56.155Z,98088.69
2022-08-05T01:41:25.729Z,98050.66
2022-08-05T01:43:53.706Z,98048.44
2022-08-05T01:46:41.910Z,98035.19
2022-08-05T01:49:23.426Z,98017.69
2022-08-05T01:51:56.531Z,98019.97
2022-08-05T01:54:33.268Z,98030.75
2022-08-05T01:58:09.945Z,98039.72
2022-08-05T01:59:49.747Z,98062.28
2022-08-05T02:02:19.229Z,98087.81
2022-08-05T02:04:56.681Z,98096.53
2022-08-05T02:07:24.544Z,98121.94
2022-08-05T02:09:57.534Z,98187.53
2022-08-05T02:12:56.500Z,98246.09
2022-08-05T02:15:34.247Z,98344.16
2022-08-05T02:18:33.135Z,98337.59
2022-08-05T02:21:00.011Z,98334.97
2022-08-05T02:23:33.490Z,98313.31
2022-08-05T02:26:02.826Z,98297.22
2022-08-05T02:28:38.121Z,98281.16
2022-08-05T02:31:14.588Z,98257.91
2022-08-05T02:33:48.565Z,98229.88
2022-08-05T02:36:19.415Z,98231.00
2022-08-05T02:38:53.702Z,98232.47
2022-08-05T02:41:23.611Z,98245.16
2022-08-05T02:44:05.892Z,98273.75
2022-08-05T02:46:34.708Z,98263.16
2022-08-05T02:49:02.575Z,98263.59
2022-08-05T02:52:02.985Z,98266.56
2022-08-05T02:54:36.300Z,98273.16
2022-08-05T02:58:10.664Z,98281.09
2022-08-05T02:59:57.532Z,98280.13
2022-08-05T03:02:33.760Z,98280.75
2022-08-05T03:05:01.904Z,98271.53
2022-08-05T03:07:59.147Z,98299.53
2022-08-05T03:10:24.363Z,98306.31
2022-08-05T03:12:54.076Z,98313.25
2022-08-05T03:15:23.772Z,98297.06
2022-08-05T03:17:54.086Z,98293.63
2022-08-05T03:20:23.669Z,98313.72
2022-08-05T03:22:52.150Z,98312.41
2022-08-05T03:26:03.606Z,98301.44
2022-08-05T03:28:08.646Z,98294.22
2022-08-05T03:30:36.747Z,98303.63
2022-08-05T03:33:07.245Z,98296.34
2022-08-05T03:35:40.731Z,98314.47
2022-08-05T03:38:11.200Z,98312.72
2022-08-05T03:40:41.437Z,98331.00
2022-08-05T03:43:59.030Z,98331.81
2022-08-05T03:45:59.472Z,98345.13
2022-08-05T03:48:28.983Z,98351.06
2022-08-05T03:52:35.176Z,98353.84
2022-08-05T03:55:50.368Z,98349.56
2022-08-05T03:56:47.094Z,98336.22
2022-08-05T03:59:20.351Z,98303.19
2022-08-05T04:01:50.886Z,98313.38
2022-08-05T04:04:21.411Z,98315.50
2022-08-05T04:06:51.019Z,98319.69
2022-08-05T04:09:25.834Z,98321.97
2022-08-05T04:11:53.319Z,98339.63
2022-08-05T04:14:30.572Z,98345.16
2022-08-05T04:16:59.635Z,98357.28
2022-08-05T04:19:28.350Z,98366.41
2022-08-05T04:22:09.352Z,98357.06
2022-08-05T04:24:52.276Z,98354.34
2022-08-05T04:27:33.342Z,98376.81
2022-08-05T04:30:09.199Z,98374.50
2022-08-05T04:32:36.479Z,98376.19
2022-08-05T04:35:04.779Z,98372.25
2022-08-05T04:38:01.577Z,98374.31
2022-08-05T04:40:19.756Z,98365.34
2022-08-05T04:42:46.540Z,98374.94
2022-08-05T04:45:14.183Z,98346.63
2022-08-05T04:48:16.278Z,98332.75
2022-08-05T04:51:03.774Z,98323.34
2022-08-05T04:53:35.527Z,98321.88
2022-08-05T04:56:15.419Z,98314.75
2022-08-05T04:58:49.760Z,98309.84
2022-08-05T05:02:05.813Z,98297.19
2022-08-05T05:04:03.202Z,98314.72
2022-08-05T05:06:40.241Z,98312.41
2022-08-05T05:09:13.305Z,98284.78
2022-08-05T05:11:54.514Z,98269.63
2022-08-05T05:14:31.287Z,98290.09
2022-08-05T05:17:03.287Z,98264.22
2022-08-05T05:19:36.752Z,98276.78
2022-08-05T05:22:24.283Z,98265.25
2022-08-05T05:24:59.797Z,98284.78
2022-08-05T05:27:41.144Z,98280.56
2022-08-05T05:30:29.678Z,98284.31
2022-08-05T05:33:15.910Z,98283.94
2022-08-05T05:35:48.110Z,98285.56
2022-08-05T05:38:22.388Z,98291.91
2022-08-05T05:40:53.504Z,98314.59
2022-08-05T05:43:57.193Z,98324.97
2022-08-05T05:46:17.616Z,98322.91
2022-08-05T05:48:48.238Z,98311.78
2022-08-05T05:51:27.737Z,98338.81
2022-08-05T05:53:58.736Z,98343.34
2022-08-05T05:56:31.828Z,98338.13
2022-08-05T05:59:06.475Z,98330.78
2022-08-05T06:01:57.262Z,98358.13
2022-08-05T06:04:24.772Z,98348.97
2022-08-05T06:06:51.406Z,98364.09
2022-08-05T06:09:26.664Z,98347.34
2022-08-05T06:12:05.496Z,98337.19
2022-08-05T06:14:33.375Z,98338.69
2022-08-05T06:17:21.710Z,98345.81
2022-08-05T06:19:57.070Z,98348.63
2022-08-05T06:22:33.756Z,98353.47
2022-08-05T06:25:01.088Z,98377.00
2022-08-05T06:28:10.783Z,98388.75
2022-08-05T06:30:34.207Z,98398.03
2022-08-05T06:33:00.799Z,98395.63
2022-08-05T06:36:07.720Z,98403.25
2022-08-05T06:38:13.916Z,98407.47
2022-08-05T06:40:44.605Z,98412.47
2022-08-05T06:43:58.162Z,98404.91
2022-08-05T06:46:06.732Z,98405.78
2022-08-05T06:48:50.357Z,98400.38
2022-08-05T06:51:26.595Z,98411.81
2022-08-05T06:54:00.522Z,98391.28
2022-08-05T06:56:29.461Z,98383.84
2022-08-05T06:58:56.378Z,98380.81
2022-08-05T07:01:27.645Z,98381.34
2022-08-05T07:04:01.542Z,98390.16
2022-08-05T07:06:29.191Z,98381.44
2022-08-05T07:08:55.874Z,98376.91
2022-08-05T07:11:25.751Z,98377.34
2022-08-05T07:14:15.836Z,98354.34
2022-08-05T07:18:07.024Z,98356.81
2022-08-05T07:22:29.189Z,98353.97
2022-08-05T07:24:58.849Z,98339.47
2022-08-05T07:27:27.560Z,98344.16
2022-08-05T07:30:25.680Z,98391.31
2022-08-05T07:32:57.554Z,98393.59
2022-08-05T07:36:02.515Z,98398.91
2022-08-05T07:38:12.269Z,98408.03
2022-08-05T07:40:55.713Z,98404.97
2022-08-05T07:43:28.165Z,98398.28
2022-08-05T07:45:57.059Z,98394.97
2022-08-05T07:49:00.903Z,98386.78
2022-08-05T07:51:23.398Z,98360.38
2022-08-05T07:53:57.661Z,98345.84
2022-08-05T07:57:00.286Z,98351.09
2022-08-05T07:59:11.132Z,98366.81
2022-08-05T08:01:51.741Z,98372.22
2022-08-05T08:04:37.521Z,98387.81
2022-08-05T08:07:07.093Z,98390.19
2022-08-05T08:09:34.488Z,98385.75
2022-08-05T08:12:09.067Z,98376.63
2022-08-05T08:14:38.022Z,98384.03
2022-08-05T08:17:14.180Z,98389.25
2022-08-05T08:20:21.496Z,98389.41
2022-08-05T08:22:31.030Z,98371.44
2022-08-05T08:25:03.213Z,98388.47
2022-08-05T08:27:40.120Z,98413.66
2022-08-05T08:30:28.465Z,98406.59
2022-08-05T08:32:58.611Z,98432.22
2022-08-05T08:35:34.977Z,98431.41
2022-08-05T08:38:07.420Z,98437.06
2022-08-05T08:40:35.337Z,98441.56
2022-08-05T08:44:56.493Z,98426.34
2022-08-05T08:45:53.984Z,98429.22
2022-08-05T08:48:36.058Z,98435.06
2022-08-05T08:52:02.386Z,98427.66
2022-08-05T08:53:56.078Z,98428.84
2022-08-05T08:56:23.583Z,98423.72
2022-08-05T08:58:54.806Z,98432.84
2022-08-05T09:01:25.361Z,98438.72
2022-08-05T09:03:55.283Z,98430.66
2022-08-05T09:06:29.521Z,98441.78
2022-08-05T09:08:58.746Z,98462.31
2022-08-05T09:11:51.698Z,98477.50
2022-08-05T09:14:56.432Z,98489.34
2022-08-05T09:17:00.159Z,98469.75
2022-08-05T09:19:36.551Z,98486.69
2022-08-05T09:22:22.326Z,98477.50
2022-08-05T09:25:01.968Z,98462.78
2022-08-05T09:28:05.292Z,98462.38
2022-08-05T09:30:27.582Z,98471.84
2022-08-05T09:33:01.315Z,98465.69
2022-08-05T09:35:28.921Z,98463.44
2022-08-05T09:38:12.273Z,98457.13
2022-08-05T09:40:53.549Z,98471.38
2022-08-05T09:43:41.687Z,98464.00
2022-08-05T09:46:27.757Z,98447.63
2022-08-05T09:49:07.754Z,98439.41
2022-08-05T09:51:43.393Z,98432.41
2022-08-05T09:54:11.310Z,98440.88
2022-08-05T09:56:39.098Z,98440.53
2022-08-05T09:59:17.128Z,98443.53
2022-08-05T10:01:46.508Z,98451.22
2022-08-05T10:04:16.074Z,98462.06
2022-08-05T10:06:59.454Z,98457.56
2022-08-05T10:09:29.269Z,98465.31
2022-08-05T10:12:18.760Z,98454.31
2022-08-05T10:15:20.353Z,98451.72
2022-08-05T10:18:06.058Z,98455.31
2022-08-05T10:20:35.320Z,98453.44
2022-08-05T10:23:02.242Z,98460.91
2022-08-05T10:25:30.264Z,98459.78
2022-08-05T10:28:13.937Z,98456.03
2022-08-05T10:32:47.177Z,98477.03
2022-08-05T10:33:34.293Z,98472.72
2022-08-05T10:36:04.462Z,98480.78
2022-08-05T10:38:33.408Z,98498.84
2022-08-05T10:41:44.934Z,98497.84
2022-08-05T10:44:18.153Z,98501.09
2022-08-05T10:46:46.115Z,98496.13
2022-08-05T10:49:17.523Z,98494.13
2022-08-05T10:52:00.389Z,98500.06
2022-08-05T10:54:56.756Z,98509.53
2022-08-05T10:57:31.806Z,98506.16
2022-08-05T11:00:13.422Z,98499.75
2022-08-05T11:03:23.701Z,98493.31
2022-08-05T11:06:16.184Z,98482.63
2022-08-05T11:09:16.787Z,98490.13
2022-08-05T11:11:52.623Z,98494.09
2022-08-05T11:15:11.680Z,98496.44
2022-08-05T11:17:59.859Z,98503.38
2022-08-05T11:20:46.120Z,98500.88
2022-08-05T11:24:05.019Z,98505.47
2022-08-05T11:26:32.517Z,98503.03
2022-08-05T11:29:11.860Z,98506.09
2022-08-05T11:31:58.204Z,98511.13
2022-08-05T11:34:51.479Z,98530.81
2022-08-05T11:38:28.578Z,98535.50
2022-08-05T11:41:01.734Z,98547.78
2022-08-05T11:44:05.994Z,98558.69
2022-08-05T11:46:32.442Z,98568.56
2022-08-05T11:49:01.018Z,98565.84
2022-08-05T11:51:44.015Z,98572.38
2022-08-05T11:54:33.847Z,98564.09
2022-08-05T11:57:08.177Z,98549.25
2022-08-05T11:59:50.357Z,98549.72
2022-08-05T12:02:30.952Z,98560.72
2022-08-05T12:05:01.432Z,98568.41
2022-08-05T12:08:08.585Z,98567.78
2022-08-05T12:10:43.311Z,98566.47
2022-08-05T12:13:27.610Z,98552.66
2022-08-05T12:16:14.152Z,98537.88
2022-08-05T12:18:42.603Z,98522.72
2022-08-05T12:21:18.704Z,98523.78
2022-08-05T12:23:57.421Z,98517.50
2022-08-05T12:26:37.084Z,98535.34
2022-08-05T12:29:09.913Z,98527.63
2022-08-05T12:32:01.997Z,98537.09
2022-08-05T12:34:32.191Z,98534.69
2022-08-05T12:37:01.574Z,98533.94
2022-08-05T12:39:37.435Z,98538.59
2022-08-05T12:42:14.635Z,98540.88
2022-08-05T12:44:42.238Z,98531.28
2022-08-05T12:47:12.487Z,98537.16
2022-08-05T12:50:04.560Z,98539.56
2022-08-05T12:52:33.972Z,98537.69
2022-08-05T12:55:18.140Z,98544.81
2022-08-05T12:58:38.591Z,98539.47
2022-08-05T13:02:03.681Z,98533.28
2022-08-05T13:03:32.399Z,98532.97
2022-08-05T13:06:01.037Z,98527.22
2022-08-05T13:08:32.328Z,98542.94
2022-08-05T13:11:02.647Z,98538.31
2022-08-05T13:14:04.724Z,98531.81
2022-08-05T13:16:20.161Z,98528.66
2022-08-05T13:18:55.195Z,98529.13
2022-08-05T13:21:27.916Z,98531.47
2022-08-05T13:23:55.580Z,98530.28
2022-08-05T13:26:27.218Z,98530.06
2022-08-05T13:28:57.282Z,98528.66
2022-08-05T13:31:34.053Z,98532.75
2022-08-05T13:34:22.321Z,98535.94
2022-08-05T13:36:53.263Z,98530.69
2022-08-05T13:40:12.934Z,98528.56
2022-08-05T13:42:07.578Z,98528.63
2022-08-05T13:44:45.767Z,98534.78
2022-08-05T13:47:35.119Z,98539.19
2022-08-05T13:50:09.565Z,98546.53
2022-08-05T13:52:39.155Z,98548.69
2022-08-05T13:55:09.779Z,98547.84
2022-08-05T13:57:50.606Z,98543.63
2022-08-05T14:00:19.611Z,98538.72
2022-08-05T14:02:54.129Z,98543.50
2022-08-05T14:05:29.257Z,98541.66
2022-08-05T14:08:19.878Z,98551.88
2022-08-05T14:10:47.705Z,98556.94
2022-08-05T14:13:15.364Z,98567.84
2022-08-05T14:16:07.367Z,98569.84
2022-08-05T14:18:28.956Z,98571.50
2022-08-05T14:20:55.636Z,98582.69
2022-08-05T14:23:25.862Z,98572.09
2022-08-05T14:25:58.741Z,98571.22
2022-08-05T14:28:30.216Z,98574.53
2022-08-05T14:30:58.914Z,98569.66
2022-08-05T14:33:25.755Z,98564.38
2022-08-05T14:35:53.996Z,98563.06
2022-08-05T14:38:31.961Z,98560.25
2022-08-05T14:41:00.465Z,98571.50
2022-08-05T14:43:59.695Z,98553.56
2022-08-05T14:46:13.751Z,98559.13
2022-08-05T14:48:40.656Z,98553.63
2022-08-05T14:51:08.358Z,98551.13
2022-08-05T14:53:44.443Z,98563.75
2022-08-05T14:56:11.857Z,98563.38
2022-08-05T14:58:47.864Z,98551.75
2022-08-05T15:01:24.316Z,98558.06
2022-08-05T15:04:11.423Z,98558.28
2022-08-05T15:06:40.537Z,98550.88
2022-08-05T15:09:07.538Z,98551.72
2022-08-05T15:11:51.556Z,98557.88
2022-08-05T15:14:34.546Z,98549.13
2022-08-05T15:17:04.598Z,98549.31
2022-08-05T15:19:31.926Z,98547.56
2022-08-05T15:22:00.987Z,98545.06
2022-08-05T15:24:28.637Z,98550.47
2022-08-05T15:26:55.864Z,98547.53
2022-08-05T15:29:23.551Z,98546.59
2022-08-05T15:31:56.493Z,98542.81
2022-08-05T15:34:31.927Z,98555.22
2022-08-05T15:37:01.389Z,98554.41
2022-08-05T15:41:00.098Z,98555.41
2022-08-05T15:42:54.731Z,98564.06
2022-08-05T15:45:06.186Z,98564.13
2022-08-05T15:47:32.942Z,98566.72
2022-08-05T15:50:03.782Z,98558.63
2022-08-05T15:52:54.424Z,98568.56
2022-08-05T15:55:20.023Z,98567.53
2022-08-05T15:57:52.178Z,98568.38
2022-08-05T16:00:26.342Z,98569.72
2022-08-05T16:03:06.069Z,98577.00
2022-08-05T16:05:32.674Z,98576.06
2022-08-05T16:07:59.229Z,98583.41
2022-08-05T16:10:27.060Z,98579.03
2022-08-05T16:12:56.186Z,98582.97
2022-08-05T16:15:23.609Z,98585.72
2022-08-05T16:17:57.440Z,98586.38
2022-08-05T16:20:25.526Z,98597.44
2022-08-05T16:22:52.110Z,98598.16
2022-08-05T16:25:18.706Z,98603.84
2022-08-05T16:27:47.028Z,98601.13
2022-08-05T16:30:28.818Z,98589.28
2022-08-05T16:32:55.901Z,98590.63
2022-08-05T16:35:28.370Z,98597.25
2022-08-05T16:38:10.470Z,98593.00
2022-08-05T16:40:51.739Z,98599.41
2022-08-05T16:43:24.053Z,98610.16
2022-08-05T16:46:07.828Z,98607.88
2022-08-05T16:48:39.465Z,98604.84
2022-08-05T16:51:09.956Z,98609.47
2022-08-05T16:54:05.243Z,98609.47
2022-08-05T16:56:29.945Z,98621.31
2022-08-05T16:58:57.782Z,98620.00
2022-08-05T17:01:24.746Z,98624.75
2022-08-05T17:03:51.977Z,98618.00
2022-08-05T17:06:19.707Z,98629.59
2022-08-05T17:08:53.627Z,98621.94
2022-08-05T17:11:23.781Z,98626.25
2022-08-05T17:14:00.695Z,98626.88
2022-08-05T17:16:36.423Z,98627.38
2022-08-05T17:19:07.045Z,98628.09
2022-08-05T17:21:36.174Z,98630.94
2022-08-05T17:24:20.478Z,98627.97
2022-08-05T17:26:56.094Z,98627.47
2022-08-05T17:29:32.830Z,98630.34
2022-08-05T17:32:00.893Z,98626.75
2022-08-05T17:34:30.238Z,98635.16
2022-08-05T17:37:00.036Z,98641.78
2022-08-05T17:39:33.446Z,98651.75
2022-08-05T17:42:20.088Z,98654.19
2022-08-05T17:44:50.153Z,98656.22
2022-08-05T17:47:22.557Z,98657.03
2022-08-05T17:50:00.562Z,98658.28
2022-08-05T17:52:52.713Z,98664.44
2022-08-05T17:55:22.218Z,98665.91
2022-08-05T17:57:50.353Z,98668.81
2022-08-05T18:00:17.396Z,98667.56
2022-08-05T18:02:47.134Z,98677.75
2022-08-05T18:05:16.773Z,98674.34
2022-08-05T18:07:44.461Z,98683.59
2022-08-05T18:10:20.292Z,98686.00
2022-08-05T18:12:50.776Z,98679.56
2022-08-05T18:15:17.707Z,98677.78
2022-08-05T18:17:59.193Z,98683.19
2022-08-05T18:20:32.017Z,98694.00
2022-08-05T18:23:09.557Z,98695.16
2022-08-05T18:25:44.894Z,98704.13
2022-08-05T18:28:16.502Z,98698.63
2022-08-05T18:30:51.054Z,98705.25
2022-08-05T18:33:22.756Z,98707.94
2022-08-05T18:36:03.911Z,98703.69
2022-08-05T18:38:36.763Z,98708.72
2022-08-05T18:41:53.580Z,98718.22
2022-08-05T18:43:54.199Z,98720.81
2022-08-05T18:46:20.837Z,98729.38
2022-08-05T18:48:52.296Z,98730.22
2022-08-05T18:52:06.506Z,98725.16
2022-08-05T18:54:31.236Z,98731.84
2022-08-05T18:57:01.411Z,98727.63
2022-08-05T18:59:44.112Z,98732.59
2022-08-05T19:02:27.812Z,98733.16
2022-08-05T19:05:02.751Z,98740.94
2022-08-05T19:07:47.889Z,98749.78
2022-08-05T19:10:18.748Z,98763.56
2022-08-05T19:12:53.267Z,98779.00
2022-08-05T19:15:56.718Z,98781.56
2022-08-05T19:18:09.173Z,98788.31
2022-08-05T19:20:41.819Z,98805.97
2022-08-05T19:23:22.416Z,98809.66
2022-08-05T19:26:02.564Z,98820.34
2022-08-05T19:28:31.212Z,98835.06
2022-08-05T19:31:00.213Z,98840.38
2022-08-05T19:33:35.245Z,98840.31
2022-08-05T19:36:02.698Z,98842.53
2022-08-05T19:38:32.631Z,98844.53
2022-08-05T19:40:59.186Z,98849.72
2022-08-05T19:44:06.760Z,98860.41
2022-08-05T19:46:16.925Z,98868.41
2022-08-05T19:48:56.463Z,98873.81
2022-08-05T19:52:05.522Z,98876.00
2022-08-05T19:54:22.811Z,98871.97
2022-08-05T19:56:57.441Z,98884.66
2022-08-05T19:59:59.332Z,98887.84
2022-08-05T20:02:11.007Z,98891.31
2022-08-05T20:04:37.827Z,98908.13
2022-08-05T20:07:13.208Z,98907.53
2022-08-05T20:09:53.607Z,98909.72
2022-08-05T20:12:23.403Z,98907.50
2022-08-05T20:14:52.349Z,98919.66
2022-08-05T20:17:23.706Z,98922.66
2022-08-05T20:19:51.106Z,98919.28
2022-08-05T20:22:24.117Z,98935.47
2022-08-05T20:24:53.948Z,98934.88
2022-08-05T20:27:21.087Z,98937.94
2022-08-05T20:29:58.282Z,98937.50
2022-08-05T20:32:26.698Z,98944.78
2022-08-05T20:34:53.768Z,98951.78
2022-08-05T20:38:04.857Z,98949.22
2022-08-05T20:40:07.913Z,98950.44
2022-08-05T20:42:34.793Z,98959.94
2022-08-05T20:45:02.569Z,98960.91
2022-08-05T20:47:32.272Z,98968.59
2022-08-05T20:49:59.604Z,98968.31
2022-08-05T20:52:29.041Z,98977.53
2022-08-05T20:55:16.076Z,98973.25
2022-08-05T20:57:44.274Z,98982.09
2022-08-05T21:00:40.661Z,98979.75
2022-08-05T21:03:06.767Z,98986.41
2022-08-05T21:05:48.167Z,98989.69
2022-08-05T21:08:33.000Z,98998.72
2022-08-05T21:11:10.043Z,98993.56
2022-08-05T21:13:48.200Z,98993.81
2022-08-05T21:16:29.569Z,98996.97
2022-08-05T21:19:00.383Z,99000.66
2022-08-05T21:21:39.515Z,99010.41
2022-08-05T21:24:12.825Z,99015.78
2022-08-05T21:26:41.450Z,99010.84
2022-08-05T21:29:12.573Z,99016.31
2022-08-05T21:31:43.430Z,99012.91
2022-08-05T21:34:10.579Z,99013.06
2022-08-05T21:36:38.384Z,99010.00
2022-08-05T21:39:05.067Z,99004.78
2022-08-05T21:41:34.333Z,99012.75
2022-08-05T21:44:04.466Z,99016.16
2022-08-05T21:46:34.953Z,99010.94
2022-08-05T21:49:07.315Z,99013.53
2022-08-05T21:52:22.797Z,99002.03
2022-08-05T21:54:30.642Z,99008.16
2022-08-05T21:57:15.403Z,99011.41
2022-08-05T22:00:03.009Z,99007.06
2022-08-05T22:02:39.440Z,99014.25
2022-08-05T22:05:09.227Z,99010.63
2022-08-05T22:07:40.410Z,99011.50
2022-08-05T22:10:26.586Z,99018.75
2022-08-05T22:12:55.302Z,99019.25
2022-08-05T22:16:01.425Z,99015.69
2022-08-05T22:18:11.027Z,99020.31
2022-08-05T22:20:38.907Z,99033.88
2022-08-05T22:23:25.374Z,99036.00
2022-08-05T22:26:30.400Z,99040.09
2022-08-05T22:28:56.958Z,99039.22
2022-08-05T22:31:25.024Z,99031.09
2022-08-05T22:34:01.091Z,99032.19
2022-08-05T22:36:28.945Z,99038.56
2022-08-05T22:38:55.979Z,99040.47
2022-08-05T22:42:04.995Z,99042.88
2022-08-05T22:44:11.976Z,99052.47
2022-08-05T22:46:40.662Z,99050.72
2022-08-05T22:50:18.525Z,99062.91
2022-08-05T22:52:05.586Z,99059.13
2022-08-05T22:54:37.777Z,99063.56
2022-08-05T22:57:06.359Z,99072.47
2022-08-05T22:59:43.639Z,99071.59
2022-08-05T23:02:13.623Z,99073.63
2022-08-05T23:04:43.814Z,99075.53
2022-08-05T23:07:18.320Z,99065.81
2022-08-05T23:09:53.490Z,99072.13
2022-08-05T23:12:28.587Z,99066.81
2022-08-05T23:14:55.789Z,99067.06
2022-08-05T23:17:34.125Z,99079.75
2022-08-05T23:20:16.635Z,99073.53
2022-08-05T23:22:47.563Z,99083.38
2022-08-05T23:25:50.346Z,99080.25
2022-08-05T23:28:06.922Z,99085.75
2022-08-05T23:30:40.451Z,99083.22
2022-08-05T23:33:16.378Z,99087.75
2022-08-05T23:35:50.711Z,99093.69
2022-08-05T23:38:18.057Z,99094.63
2022-08-05T23:40:49.707Z,99092.16
2022-08-05T23:43:25.031Z,99093.44
2022-08-05T23:46:20.971Z,99090.03
2022-08-05T23:49:00.014Z,99101.59
2022-08-05T23:51:54.204Z,99103.53
2022-08-05T23:54:25.526Z,99108.97
2022-08-05T23:57:03.146Z,99100.25
